Text Box: All records at near 07:00 local time
Kleivo 1 weather for Dec 2010
Month no. 49
Obs.
Da.
Temp. Dew Point Precip. Wind
Speed
Wind gusts Cloud cover Press. Humidity Wind dir. Sunny OPT
01.12.2010 -9,4 -13,6 0,0 0,0 14,5 10 1012,9 78,0   1 75,0 %
02.12.2010 -9,0 -9,1 0,0 0,0 1,6 10 1008,1 83,0   1 75,0 %
03.12.2010 -6,5 -9,3 0,0 0,0 0,0 10 991,9 79,0   1 75,0 %
04.12.2010 -1,4 -3,2 0,0 16,1 12,9 10 985,1 71,0 135,0 1 67,5 %
05.12.2010 -0,9 0,1 0,0 1,6 8,0 10 977,7 69,0 337,5 1 77,5 %
06.12.2010 -3,1 -3,9 0,0 4,8 4,8 10 977,0 85,0 135,0 1 72,5 %
07.12.2010 -2,7 -5,5 0,0 14,5 1,6 10 983,1 84,0 112,5 1 67,5 %
08.12.2010 0,3 -0,3 1,5 1,6 4,8 2 986,1 89,0 337,5   60,0 %
09.12.2010 -5,1 -3,9 0,0 0,0 0,0 9 993,9 89,0   1 72,5 %
10.12.2010 2,4 -2,2 4,6 8,0 0,0 2 988,1 89,0 135,0   52,5 %
11.12.2010 4,9 4,3 2,5 4,8 11,3 0 984,1 89,0 45,0   55,0 %
12.12.2010 -1,9 0,0 0,0 3,2 22,5 1 1000,7 89,0 315,0   55,0 %
13.12.2010   0,0   0,0 11,3 0   87,0      
14.12.2010 1,5 -1,5 0,0 4,8 3,2 0 1015,6 85,0 135,0   52,5 %
15.12.2010 -3,1 -0,9 0,0 0,0 11,3 0 1014,9 90,0     50,0 %
16.12.2010 -1,8 -2,5 5,1 0,0 9,7 0 976,6 90,0     50,0 %
17.12.2010 -5,1 -6,5 0,0 11,3 8,0 0 971,9 85,0 135,0   42,5 %
18.12.2010 0,9 -5,8 0,0 9,7 9,7 0 985,8 53,0 112,5   50,0 %
19.12.2010 -2,4 -8,4 0,0 11,3 3,2 0 989,2 55,0 90,0   45,0 %
20.12.2010 -6,4 -13,0 0,0 3,2 1,6 0 984,4 55,0 112,5   50,0 %
21.12.2010 -4,4 -8,3 0,0 11,3 4,8 0 986,1 85,0 135,0   42,5 %
22.12.2010 -4,8 -5,7 0,0 8,0 1,6 0 994,6 88,0 180,0   45,0 %
23.12.2010 -1,4 -3,3 0,0 8,0 8,0 0 998,0 89,0 157,5   47,5 %
24.12.2010 -3,0 -5,4 0,0 8,0 0,0 0 1002,4 87,0 157,5   45,0 %
25.12.2010 -3,4 -3,2 0,0 3,2 3,2 8 1005,1 87,0 157,5 1 70,0 %
26.12.2010 -8,2 -8,5 0,0 1,6 9,7 10 1006,1 87,0 0,0 1 75,0 %
27.12.2010 -5,4 -6,2 0,0 0,0 0,0 0 1001,2 84,0     50,0 %
28.12.2010 -6,9 -9,3 0,0 0,0 1,6 10 1008,1 80,0   1 75,0 %
29.12.2010 -2,6 -5,8 0,0 8,0 8,0 3 1009,5 69,0 135,0 1 52,5 %
30.12.2010 -1,0 -3,4 0,0 0,0 11,3 0 1004,4 89,0     52,5 %
31.12.2010 -0,1 -0,1 0,5 0,0 8,0 0 999,7 89,0     52,5 %
Avrg/Sum -3,0 -4,7 14,2 4,6 6,3 3,7 994,7 81,5 153,0 12 58,4 %